Time;durP1;ratioP1;P1;durP2;ratioP2;P2;SDS_P1;SDS_P2;PMS_P1;PMS_P2;Temp;Humidity;BMP_temperature;BMP_pressure;BME280_temperature;BME280_humidity;BME280_pressure;Samples;Min_cycle;Max_cycle;Signal;HPM_P1;HPM_P2
2024/02/15 00:01:19;;;;;;;6.53;5.67;;;;;;;11.07;100.00;100914.41;4998668;28;20232;-81
2024/02/15 00:03:45;;;;;;;5.80;5.20;;;;;;;11.11;100.00;100915.91;4990758;28;20209;-81
2024/02/15 00:06:13;;;;;;;5.77;5.27;;;;;;;11.12;100.00;100917.63;4997385;28;20210;-81
2024/02/15 00:08:40;;;;;;;6.13;5.17;;;;;;;11.13;100.00;100913.16;4996227;28;21371;-81
2024/02/15 00:11:09;;;;;;;6.50;4.90;;;;;;;11.12;100.00;100909.63;4993821;28;20599;-81
2024/02/15 00:13:36;;;;;;;6.50;5.90;;;;;;;11.19;100.00;100911.94;4990663;28;20343;-81
2024/02/15 00:16:02;;;;;;;6.33;5.73;;;;;;;11.21;100.00;100904.69;4991648;28;20217;-80
2024/02/15 00:18:29;;;;;;;6.67;6.00;;;;;;;11.23;100.00;100917.00;5002992;28;20211;-81
2024/02/15 00:20:55;;;;;;;7.17;6.47;;;;;;;11.24;100.00;100910.72;4992631;28;20655;-81
2024/02/15 00:23:23;;;;;;;6.70;6.00;;;;;;;11.21;100.00;100902.91;4998719;28;20200;-81
2024/02/15 00:25:49;;;;;;;5.83;5.30;;;;;;;11.22;100.00;100898.41;4990982;28;20203;-81
2024/02/15 00:28:16;;;;;;;8.30;7.50;;;;;;;11.21;100.00;100904.69;4993412;28;20211;-82
2024/02/15 00:30:43;;;;;;;7.37;6.10;;;;;;;11.22;100.00;100906.41;4990589;28;20233;-80
2024/02/15 00:33:10;;;;;;;6.13;5.43;;;;;;;11.21;100.00;100902.91;4990507;28;20274;-81
2024/02/15 00:35:36;;;;;;;7.10;6.20;;;;;;;11.27;100.00;100905.19;5000649;28;20214;-81
2024/02/15 00:38:04;;;;;;;6.70;5.67;;;;;;;11.31;100.00;100908.50;4991168;28;20651;-80
2024/02/15 00:40:31;;;;;;;6.70;5.60;;;;;;;11.29;100.00;100907.72;4993237;28;20218;-81
2024/02/15 00:42:58;;;;;;;6.13;5.00;;;;;;;11.28;100.00;100909.56;4994147;28;20200;-82
2024/02/15 00:45:24;;;;;;;7.33;5.93;;;;;;;11.28;100.00;100908.72;4995039;28;20213;-81
2024/02/15 00:47:51;;;;;;;6.37;5.30;;;;;;;11.29;100.00;100913.06;4990631;28;20215;-80
2024/02/15 00:50:18;;;;;;;6.43;5.83;;;;;;;11.31;100.00;100916.50;4993537;28;20705;-81
2024/02/15 00:52:44;;;;;;;6.83;5.57;;;;;;;11.28;100.00;100912.25;4988297;28;20549;-81
2024/02/15 00:55:10;;;;;;;6.93;5.60;;;;;;;11.28;100.00;100914.91;4995824;28;20584;-81
2024/02/15 00:57:38;;;;;;;6.23;5.13;;;;;;;11.30;100.00;100915.63;4990642;28;20231;-81
2024/02/15 01:00:09;;;;;;;6.90;6.07;;;;;;;11.30;100.00;100917.44;4997991;28;20209;-82
2024/02/15 01:02:35;;;;;;;8.53;5.53;;;;;;;11.28;100.00;100911.38;4995109;28;20227;-81
2024/02/15 01:05:03;;;;;;;6.50;5.17;;;;;;;11.32;100.00;100915.53;4998393;28;20209;-81
2024/02/15 01:07:29;;;;;;;4.90;4.43;;;;;;;11.31;100.00;100914.69;4995430;28;20461;-82
2024/02/15 01:09:56;;;;;;;5.27;4.77;;;;;;;11.32;100.00;100923.53;4992823;28;20602;-80
2024/02/15 01:12:22;;;;;;;5.30;4.80;;;;;;;11.34;100.00;100922.50;4988234;28;20233;-82
2024/02/15 01:14:50;;;;;;;5.70;5.10;;;;;;;11.33;100.00;100925.25;4994186;28;20235;-80
2024/02/15 01:17:17;;;;;;;5.53;4.60;;;;;;;11.31;100.00;100921.84;4995259;28;20696;-81
2024/02/15 01:19:43;;;;;;;5.20;4.57;;;;;;;11.37;100.00;100921.47;4998128;28;20231;-80
2024/02/15 01:22:10;;;;;;;4.33;3.80;;;;;;;11.34;100.00;100927.84;4995931;28;20229;-81
2024/02/15 01:24:36;;;;;;;5.37;4.43;;;;;;;11.37;100.00;100921.47;4996182;28;20323;-81
2024/02/15 01:27:03;;;;;;;4.73;4.20;;;;;;;11.35;100.00;100916.22;4990391;28;20210;-81
2024/02/15 01:29:29;;;;;;;5.90;4.90;;;;;;;11.33;100.00;100919.94;4999361;28;20218;-81
2024/02/15 01:31:57;;;;;;;6.13;5.17;;;;;;;11.30;100.00;100914.78;4994203;28;20329;-81
2024/02/15 01:34:24;;;;;;;4.97;4.40;;;;;;;11.32;100.00;100915.53;4998490;28;20227;-81
2024/02/15 01:36:50;;;;;;;5.47;4.40;;;;;;;11.33;100.00;100919.94;4994123;28;20209;-81
2024/02/15 01:39:17;;;;;;;6.27;4.60;;;;;;;11.30;100.00;100920.13;4991162;28;20267;-82
2024/02/15 01:41:48;;;;;;;5.10;4.50;;;;;;;11.31;100.00;100922.69;4989873;28;20235;-81
2024/02/15 01:44:14;;;;;;;5.27;4.73;;;;;;;11.32;100.00;100920.88;4995164;28;20226;-81
2024/02/15 01:46:41;;;;;;;4.43;4.00;;;;;;;11.31;100.00;100925.34;4994455;28;20202;-82
2024/02/15 01:49:09;;;;;;;4.03;3.60;;;;;;;11.33;100.00;100909.25;4995464;28;20210;-81
2024/02/15 01:51:37;;;;;;;7.37;5.37;;;;;;;11.31;100.00;100906.69;4992746;28;20235;-82
2024/02/15 01:54:03;;;;;;;4.67;4.27;;;;;;;11.31;100.00;100903.16;4991199;28;20229;-82
2024/02/15 01:56:31;;;;;;;4.73;3.87;;;;;;;11.35;100.00;100910.88;4990851;28;20212;-82
2024/02/15 01:58:58;;;;;;;4.30;3.77;;;;;;;11.36;100.00;100909.06;4991564;28;20215;-82
2024/02/15 02:01:25;;;;;;;4.93;4.10;;;;;;;11.34;100.00;100903.84;4987395;28;20737;-80
2024/02/15 02:03:51;;;;;;;4.40;4.00;;;;;;;11.30;100.00;100898.78;4993053;28;20539;-81
2024/02/15 02:06:19;;;;;;;4.73;3.50;;;;;;;11.34;100.00;100898.50;4992281;28;20216;-81
2024/02/15 02:08:46;;;;;;;3.77;3.40;;;;;;;11.37;100.00;100900.97;4992020;28;20214;-81
2024/02/15 02:11:12;;;;;;;4.73;3.93;;;;;;;11.36;100.00;100891.28;4988934;28;20578;-80
2024/02/15 02:13:39;;;;;;;4.07;3.00;;;;;;;11.33;100.00;100886.13;4989454;28;20816;-81
2024/02/15 02:16:24;;;;;;;4.33;3.57;;;;;;;11.33;100.00;100871.94;4990345;28;20599;-81
2024/02/15 02:18:51;;;;;;;4.17;2.67;;;;;;;11.30;100.00;100877.44;4991568;28;20197;-81
2024/02/15 02:21:18;;;;;;;3.40;3.10;;;;;;;11.26;100.00;100875.97;4989298;28;20272;-80
2024/02/15 02:23:49;;;;;;;3.03;2.70;;;;;;;11.26;100.00;100883.94;4989562;28;20196;-80
2024/02/15 02:26:17;;;;;;;2.90;2.60;;;;;;;11.26;100.00;100887.47;4990261;28;20226;-80
2024/02/15 02:28:44;;;;;;;3.17;2.87;;;;;;;11.19;100.00;100880.81;4990542;28;20576;-80
2024/02/15 02:31:11;;;;;;;3.70;2.53;;;;;;;11.19;100.00;100878.13;4996495;28;20264;-81
2024/02/15 02:33:38;;;;;;;2.87;2.53;;;;;;;11.16;100.00;100891.66;4994949;28;20230;-82
2024/02/15 02:36:07;;;;;;;2.73;2.53;;;;;;;11.16;100.00;100877.47;5000184;28;20542;-80
2024/02/15 02:38:33;;;;;;;4.90;2.53;;;;;;;11.18;100.00;100883.56;4994573;28;20214;-81
2024/02/15 02:41:00;;;;;;;2.53;2.33;;;;;;;11.17;100.00;100877.38;4994168;28;20242;-80
2024/02/15 02:43:28;;;;;;;3.30;2.67;;;;;;;11.20;100.00;100887.00;4997425;28;20208;-81
2024/02/15 02:45:54;;;;;;;2.80;2.50;;;;;;;11.18;100.00;100883.56;4997448;28;20212;-81
2024/02/15 02:48:21;;;;;;;2.43;2.23;;;;;;;11.19;100.00;100890.59;4993727;28;20202;-82
2024/02/15 02:50:48;;;;;;;2.20;2.00;;;;;;;11.19;100.00;100893.28;4997624;28;20233;-81
2024/02/15 02:53:15;;;;;;;1.93;1.83;;;;;;;11.22;100.00;100893.09;4993069;28;20216;-80
2024/02/15 02:55:41;;;;;;;2.30;2.10;;;;;;;11.22;100.00;100890.41;4998982;28;20211;-81
2024/02/15 02:58:08;;;;;;;2.60;2.40;;;;;;;11.22;100.00;100890.41;4994306;28;20202;-80
2024/02/15 03:00:37;;;;;;;4.83;2.57;;;;;;;11.23;100.00;100887.66;4994771;28;20223;-80
2024/02/15 03:03:05;;;;;;;2.67;2.40;;;;;;;11.24;100.00;100893.84;4994738;28;20335;-81
2024/02/15 03:05:31;;;;;;;2.60;2.10;;;;;;;11.20;100.00;100889.66;4992429;28;20201;-80
2024/02/15 03:07:58;;;;;;;7.97;3.10;;;;;;;11.23;100.00;100886.81;4996422;28;20210;-81
2024/02/15 03:10:24;;;;;;;2.47;2.27;;;;;;;11.23;100.00;100886.81;4994354;28;20211;-81
2024/02/15 03:12:51;;;;;;;2.23;1.70;;;;;;;11.25;100.00;100882.25;4997090;28;20222;-81
2024/02/15 03:15:18;;;;;;;2.67;2.20;;;;;;;11.23;100.00;100886.81;4995511;28;20733;-82
2024/02/15 03:17:49;;;;;;;3.40;2.33;;;;;;;11.25;100.00;100874.25;4994099;28;20196;-80
2024/02/15 03:20:21;;;;;;;4.60;2.13;;;;;;;11.25;100.00;100890.25;4989000;28;20214;-79
2024/02/15 03:22:52;;;;;;;2.50;2.30;;;;;;;11.27;100.00;100883.00;4998798;28;20202;-81
2024/02/15 03:25:18;;;;;;;3.20;2.13;;;;;;;11.25;100.00;100879.56;4992062;28;20224;-79
2024/02/15 03:27:45;;;;;;;2.90;2.03;;;;;;;11.25;100.00;100887.56;4997514;28;20291;-81
2024/02/15 03:30:12;;;;;;;2.83;2.00;;;;;;;11.28;100.00;100888.25;5001397;28;20581;-81
2024/02/15 03:32:40;;;;;;;3.30;2.07;;;;;;;11.28;100.00;100896.25;5001330;28;20233;-80
2024/02/15 03:35:08;;;;;;;2.33;2.13;;;;;;;11.30;100.00;100898.78;4994376;28;20225;-80
2024/02/15 03:37:36;;;;;;;4.20;1.90;;;;;;;11.28;100.00;100906.06;4996141;28;20250;-80
2024/02/15 03:40:04;;;;;;;1.87;1.70;;;;;;;11.29;100.00;100905.91;4996000;28;20212;-80
2024/02/15 03:42:31;;;;;;;1.93;1.73;;;;;;;11.30;100.00;100901.44;4996617;28;20758;-81
2024/02/15 03:44:57;;;;;;;2.30;2.00;;;;;;;11.33;100.00;100907.44;4994070;28;20200;-81
2024/02/15 03:47:24;;;;;;;2.30;1.87;;;;;;;11.33;100.00;100898.59;4999670;28;20222;-80
2024/02/15 03:49:50;;;;;;;2.10;1.80;;;;;;;11.33;100.00;100899.47;4995767;28;20292;-79
2024/02/15 03:52:21;;;;;;;1.63;1.47;;;;;;;11.34;100.00;100901.16;4999118;28;20231;-81
2024/02/15 03:54:48;;;;;;;1.83;1.73;;;;;;;11.35;100.00;100910.03;5000120;28;20701;-82
2024/02/15 03:57:16;;;;;;;1.97;1.77;;;;;;;11.35;100.00;100905.56;4997987;28;20214;-83
2024/02/15 03:59:43;;;;;;;2.03;1.83;;;;;;;11.38;100.00;100910.69;5003785;28;20678;-83
2024/02/15 04:02:14;;;;;;;1.90;1.60;;;;;;;11.35;100.00;100905.56;5002802;28;20229;-82
2024/02/15 04:04:42;;;;;;;2.23;1.80;;;;;;;11.35;100.00;100912.69;5006000;28;20202;-83
2024/02/15 04:07:08;;;;;;;2.00;1.50;;;;;;;11.39;100.00;100914.22;5008276;28;20201;-82
2024/02/15 04:09:36;;;;;;;2.03;1.83;;;;;;;11.40;100.00;100915.94;5006109;28;20738;-83
2024/02/15 04:12:03;;;;;;;2.17;1.73;;;;;;;11.40;100.00;100926.59;5003520;28;20231;-83
2024/02/15 04:14:29;;;;;;;2.60;1.87;;;;;;;11.39;100.00;100924.88;5005153;28;20841;-83
2024/02/15 04:16:57;;;;;;;3.30;2.10;;;;;;;11.43;100.00;100921.94;5007158;28;20205;-83
2024/02/15 04:19:23;;;;;;;2.57;1.90;;;;;;;11.43;100.00;100916.63;5001524;28;20214;-83
2024/02/15 04:21:50;;;;;;;2.57;2.00;;;;;;;11.45;100.00;100917.38;5003088;28;20312;-82
2024/02/15 04:24:17;;;;;;;3.27;2.10;;;;;;;11.45;100.00;100919.19;5006663;28;20289;-83
2024/02/15 04:26:47;;;;;;;2.83;2.10;;;;;;;11.46;100.00;100920.91;5000717;28;20204;-82
2024/02/15 04:29:14;;;;;;;2.60;2.07;;;;;;;11.49;100.00;100918.00;4996044;28;20764;-82
2024/02/15 04:31:42;;;;;;;2.50;2.30;;;;;;;11.53;100.00;100918.69;5005241;28;20237;-83
2024/02/15 04:34:09;;;;;;;3.10;2.50;;;;;;;11.52;100.00;100923.16;5001843;28;20219;-82
2024/02/15 04:36:36;;;;;;;4.70;2.80;;;;;;;11.50;100.00;100922.41;5005398;28;20205;-82
2024/02/15 04:39:04;;;;;;;2.70;1.90;;;;;;;11.53;100.00;100914.22;5010262;28;20212;-82
2024/02/15 04:41:30;;;;;;;2.50;2.30;;;;;;;11.53;100.00;100905.34;5011014;28;20317;-82
2024/02/15 04:43:58;;;;;;;2.43;2.23;;;;;;;11.55;100.00;100901.63;5012862;28;20210;-82
2024/02/15 04:46:24;;;;;;;2.60;2.40;;;;;;;11.54;100.00;100909.72;5006390;28;20208;-82
2024/02/15 04:48:51;;;;;;;3.50;2.30;;;;;;;11.59;100.00;100907.63;5004947;28;20207;-83
2024/02/15 04:51:19;;;;;;;2.93;2.53;;;;;;;11.59;100.00;100904.97;5002642;28;20223;-83
2024/02/15 04:53:47;;;;;;;2.33;2.10;;;;;;;11.57;100.00;100906.88;5007138;28;20568;-83
2024/02/15 04:56:14;;;;;;;2.57;2.37;;;;;;;11.54;100.00;100913.25;5002069;28;20273;-83
2024/02/15 04:58:45;;;;;;;3.80;2.30;;;;;;;11.55;100.00;100903.44;4999150;28;20211;-82
2024/02/15 05:01:15;;;;;;;2.73;2.30;;;;;;;11.53;100.00;100905.34;5000202;28;20246;-83
2024/02/15 05:03:47;;;;;;;2.60;2.40;;;;;;;11.58;100.00;100908.59;5001176;28;20250;-82
2024/02/15 05:06:14;;;;;;;3.47;2.67;;;;;;;11.55;100.00;100909.63;4994166;28;20220;-83
2024/02/15 05:08:42;;;;;;;2.80;2.50;;;;;;;11.57;100.00;100910.41;5002790;28;20210;-82
2024/02/15 05:11:14;;;;;;;2.63;2.43;;;;;;;11.57;100.00;100905.06;4998084;28;20322;-82
2024/02/15 05:13:40;;;;;;;2.87;2.67;;;;;;;11.62;100.00;100905.63;5007550;28;20559;-82
2024/02/15 05:16:07;;;;;;;3.87;2.57;;;;;;;11.58;100.00;100909.44;4996957;28;20232;-83
2024/02/15 05:18:35;;;;;;;3.87;2.87;;;;;;;11.62;100.00;100918.13;4995062;28;20210;-83
2024/02/15 05:21:03;;;;;;;3.23;2.70;;;;;;;11.63;100.00;100917.16;5001710;28;20908;-82
2024/02/15 05:23:29;;;;;;;3.27;2.50;;;;;;;11.62;100.00;100904.78;4998454;28;20230;-82
2024/02/15 05:25:58;;;;;;;5.03;2.80;;;;;;;11.61;100.00;100901.25;4992821;28;20203;-82
2024/02/15 05:28:26;;;;;;;2.70;2.50;;;;;;;11.61;100.00;100909.25;5002064;28;20211;-82
2024/02/15 05:31:10;;;;;;;4.33;2.83;;;;;;;11.63;100.00;100919.84;4996824;28;20623;-82
2024/02/15 05:33:42;;;;;;;4.70;2.70;;;;;;;11.65;100.00;100925.91;4999436;28;20206;-83
2024/02/15 05:36:10;;;;;;;3.27;2.97;;;;;;;11.64;100.00;100910.88;4998753;28;20228;-82
2024/02/15 05:38:36;;;;;;;3.43;2.97;;;;;;;11.66;100.00;100912.47;5003314;28;20583;-83
2024/02/15 05:41:03;;;;;;;3.47;3.07;;;;;;;11.68;100.00;100899.88;5000035;28;20227;-82
2024/02/15 05:43:30;;;;;;;3.70;3.33;;;;;;;11.67;100.00;100903.50;5004595;28;20207;-82
2024/02/15 05:45:57;;;;;;;3.17;2.87;;;;;;;11.67;100.00;100902.66;4998872;28;20290;-84
2024/02/15 05:48:24;;;;;;;4.30;3.30;;;;;;;11.68;100.00;100905.22;4997925;28;20213;-83
2024/02/15 05:50:54;;;;;;;4.40;4.00;;;;;;;11.71;100.00;100905.03;4987952;28;20234;-82
2024/02/15 05:53:20;;;;;;;4.47;3.87;;;;;;;11.68;100.00;100905.22;4994657;28;20214;-83
2024/02/15 05:55:49;;;;;;;3.93;3.47;;;;;;;11.66;100.00;100904.47;4993170;28;20230;-83
2024/02/15 05:58:16;;;;;;;3.50;3.10;;;;;;;11.69;100.00;100911.41;4995734;28;20205;-83
2024/02/15 06:00:44;;;;;;;4.13;3.73;;;;;;;11.70;100.00;100907.81;4996354;28;20244;-83
2024/02/15 06:03:12;;;;;;;4.77;3.77;;;;;;;11.68;100.00;100899.88;4998691;28;20722;-84
2024/02/15 06:05:38;;;;;;;6.10;4.03;;;;;;;11.65;100.00;100910.75;5001251;28;20206;-83
2024/02/15 06:08:06;;;;;;;6.07;4.20;;;;;;;11.65;100.00;100910.75;4991794;28;20671;-82
2024/02/15 06:10:33;;;;;;;4.07;3.57;;;;;;;11.65;100.00;100913.41;4993395;28;20210;-82
2024/02/15 06:13:00;;;;;;;5.30;3.77;;;;;;;11.71;100.00;100921.03;4993154;28;20204;-82
2024/02/15 06:15:26;;;;;;;5.07;4.17;;;;;;;11.70;100.00;100923.81;5001850;28;20220;-82
2024/02/15 06:17:53;;;;;;;4.60;3.63;;;;;;;11.67;100.00;100918.66;4995203;28;20215;-83
2024/02/15 06:20:21;;;;;;;4.23;3.50;;;;;;;11.69;100.00;100924.75;5000406;28;20271;-82
2024/02/15 06:22:47;;;;;;;5.90;3.73;;;;;;;11.70;100.00;100924.66;4988494;28;20700;-84
2024/02/15 06:25:20;;;;;;;3.97;3.50;;;;;;;11.73;100.00;100921.81;5000200;28;20206;-84
2024/02/15 06:27:48;;;;;;;4.47;2.80;;;;;;;11.74;100.00;100922.66;5001771;28;21570;-82
2024/02/15 06:41:31;;;;;;;7.10;5.70;;;;;;;11.67;100.00;100927.53;4998748;28;20242;-81
2024/02/15 06:43:58;;;;;;;6.40;5.10;;;;;;;11.71;100.00;100920.19;4990686;28;20212;-81
2024/02/15 06:46:24;;;;;;;7.17;5.33;;;;;;;11.68;100.00;100928.38;4992724;28;20203;-82
2024/02/15 06:48:51;;;;;;;6.93;4.70;;;;;;;11.70;100.00;100931.81;4997201;28;20210;-81
2024/02/15 06:51:20;;;;;;;5.90;4.53;;;;;;;11.67;100.00;100930.19;5004721;28;20237;-81
2024/02/15 06:53:47;;;;;;;9.30;4.97;;;;;;;11.64;100.00;100938.41;5000911;28;20202;-80
2024/02/15 06:56:13;;;;;;;7.17;5.13;;;;;;;11.61;100.00;100933.28;4996606;28;20296;-82
2024/02/15 06:58:41;;;;;;;5.50;4.77;;;;;;;11.61;100.00;100933.28;4997751;28;20249;-81
2024/02/15 07:01:08;;;;;;;8.10;4.97;;;;;;;11.62;100.00;100943.00;5000026;28;20233;-81
2024/02/15 07:03:35;;;;;;;7.53;5.07;;;;;;;11.62;100.00;100943.00;4986278;28;20275;-81
2024/02/15 07:06:02;;;;;;;8.60;5.70;;;;;;;11.60;100.00;100941.38;5002394;28;20899;-80
2024/02/15 07:08:29;;;;;;;9.70;6.00;;;;;;;11.64;100.00;100937.56;4997864;28;20730;-80
2024/02/15 07:10:56;;;;;;;8.60;5.43;;;;;;;11.63;100.00;100935.84;4995066;28;20230;-81
2024/02/15 07:13:22;;;;;;;7.73;5.67;;;;;;;11.67;100.00;100930.19;4996138;28;20206;-79
2024/02/15 07:15:50;;;;;;;7.23;5.13;;;;;;;11.66;100.00;100928.47;4991159;28;20285;-82
2024/02/15 07:18:18;;;;;;;7.27;4.77;;;;;;;11.66;100.00;100928.47;5003291;28;20302;-80
2024/02/15 07:20:46;;;;;;;7.27;5.20;;;;;;;11.68;100.00;100933.72;5001237;28;20230;-80
2024/02/15 07:23:13;;;;;;;7.03;4.43;;;;;;;11.69;100.00;100928.28;4994550;28;20204;-81
2024/02/15 07:25:39;;;;;;;5.33;4.23;;;;;;;11.67;100.00;100935.53;5004249;28;20202;-80
2024/02/15 07:28:08;;;;;;;7.07;4.87;;;;;;;11.65;100.00;100932.09;5001494;28;20214;-81
2024/02/15 07:30:34;;;;;;;6.30;4.80;;;;;;;11.67;100.00;100929.34;5007112;28;20206;-81
2024/02/15 07:33:02;;;;;;;5.87;3.93;;;;;;;11.71;100.00;100923.72;5005202;28;20209;-81
2024/02/15 07:35:29;;;;;;;6.00;4.10;;;;;;;11.69;100.00;100914.94;5005181;28;20257;-82
2024/02/15 07:37:58;;;;;;;8.03;4.03;;;;;;;11.70;100.00;100913.13;5008665;28;20203;-81
2024/02/15 07:40:28;;;;;;;4.73;3.57;;;;;;;11.69;100.00;100906.94;5003714;28;20289;-82
2024/02/15 07:42:56;;;;;;;3.50;2.57;;;;;;;11.74;100.00;100904.84;5004106;28;20211;-81
2024/02/15 07:45:23;;;;;;;3.67;2.63;;;;;;;11.76;100.00;100905.66;5008663;28;20213;-80
2024/02/15 07:47:49;;;;;;;4.57;2.73;;;;;;;11.73;100.00;100894.28;4998096;28;20227;-79
2024/02/15 07:50:22;;;;;;;13.97;8.37;;;;;;;11.74;100.00;100907.50;5006964;28;20393;-80
2024/02/15 07:52:51;;;;;;;7.17;4.67;;;;;;;11.73;100.00;100908.47;5001744;28;20226;-81
2024/02/15 07:55:17;;;;;;;4.77;3.90;;;;;;;11.79;100.00;100907.25;5009023;28;20472;-81
2024/02/15 07:57:43;;;;;;;4.03;2.70;;;;;;;11.77;100.00;100910.03;4999842;28;20202;-80
2024/02/15 08:00:11;;;;;;;5.73;3.20;;;;;;;11.77;100.00;100918.03;5003816;28;20204;-80
2024/02/15 08:02:41;;;;;;;3.97;2.30;;;;;;;11.77;100.00;100918.03;5005722;28;20258;-80
2024/02/15 08:05:10;;;;;;;5.00;3.00;;;;;;;11.74;100.00;100910.19;4995881;28;20260;-81
2024/02/15 08:07:38;;;;;;;5.07;2.60;;;;;;;11.73;100.00;100918.28;4993734;28;20203;-79
2024/02/15 08:10:08;;;;;;;3.60;2.70;;;;;;;11.74;100.00;100914.66;4996841;28;20204;-81
2024/02/15 08:12:34;;;;;;;3.50;2.47;;;;;;;11.70;100.00;100906.00;5001754;28;20231;-81
2024/02/15 08:15:01;;;;;;;2.53;2.27;;;;;;;11.76;100.00;100908.31;4999526;28;20207;-81
2024/02/15 08:17:29;;;;;;;4.60;2.23;;;;;;;11.76;100.00;100899.44;4998596;28;20203;-80
2024/02/15 08:19:55;;;;;;;3.83;2.20;;;;;;;11.74;100.00;100895.97;5001944;28;20769;-80
2024/02/15 08:22:23;;;;;;;6.03;2.50;;;;;;;11.81;100.00;100903.53;4996469;28;20585;-79
2024/02/15 08:24:53;;;;;;;5.57;2.00;;;;;;;11.81;100.00;100910.69;5000383;28;20214;-79
2024/02/15 08:27:19;;;;;;;2.97;1.87;;;;;;;11.80;100.00;100904.50;4995880;28;20210;-81
2024/02/15 08:29:46;;;;;;;3.27;2.10;;;;;;;11.87;100.00;100890.72;4997181;28;20217;-80
2024/02/15 08:32:14;;;;;;;3.00;1.70;;;;;;;11.88;100.00;100898.66;4995387;28;20234;-79
2024/02/15 08:34:40;;;;;;;3.30;2.00;;;;;;;11.91;100.00;100895.78;4998190;28;20818;-81
2024/02/15 08:37:07;;;;;;;6.77;1.67;;;;;;;11.93;100.00;100895.69;5000350;28;20227;-79
2024/02/15 08:39:33;;;;;;;2.17;1.77;;;;;;;11.95;100.00;100899.13;4998577;28;20292;-81
2024/02/15 08:42:01;;;;;;;2.07;1.50;;;;;;;11.95;100.00;100899.13;5000169;28;20239;-81
2024/02/15 08:44:28;;;;;;;8.43;5.40;;;;;;;11.96;100.00;100899.03;4998352;28;20209;-79
2024/02/15 08:46:55;;;;;;;2.47;1.83;;;;;;;11.98;100.00;100891.78;4995598;28;20218;-80
2024/02/15 08:49:22;;;;;;;3.23;1.40;;;;;;;12.04;100.00;100886.00;4997683;28;20774;-81
2024/02/15 08:51:48;;;;;;;3.03;1.70;;;;;;;12.08;100.00;100886.66;4988050;28;20601;-81
2024/02/15 08:54:15;;;;;;;3.20;1.43;;;;;;;12.08;100.00;100884.00;4997899;28;20620;-80
2024/02/15 08:56:41;;;;;;;3.50;1.77;;;;;;;12.11;100.00;100882.00;4999674;28;20232;-82
2024/02/15 08:59:09;;;;;;;1.97;1.40;;;;;;;12.15;100.00;100883.50;4999841;28;20216;-80
2024/02/15 09:01:35;;;;;;;1.43;1.30;;;;;;;12.22;100.00;100891.94;4995974;28;20231;-81
2024/02/15 09:04:02;;;;;;;4.10;2.10;;;;;;;12.25;100.00;100883.75;5000257;28;20214;-80
2024/02/15 09:06:28;;;;;;;2.37;1.27;;;;;;;12.26;100.00;100885.44;5000067;28;20457;-80
2024/02/15 09:08:56;;;;;;;2.53;1.73;;;;;;;12.27;100.00;100892.50;4997671;28;20218;-79
2024/02/15 09:11:23;;;;;;;3.73;1.70;;;;;;;12.29;100.00;100884.41;4997715;28;20258;-80
2024/02/15 09:13:51;;;;;;;2.47;1.60;;;;;;;12.32;100.00;100890.41;4998343;28;20213;-80
2024/02/15 09:16:21;;;;;;;2.33;1.30;;;;;;;12.36;100.00;100885.72;4999211;28;20292;-79
2024/02/15 09:18:48;;;;;;;2.87;1.60;;;;;;;12.38;100.00;100881.94;4999618;28;20203;-80
2024/02/15 09:21:14;;;;;;;1.37;1.23;;;;;;;12.39;100.00;100877.47;4997989;28;20238;-79
2024/02/15 09:23:41;;;;;;;4.07;2.70;;;;;;;12.43;100.00;100877.16;4999248;28;20207;-81
2024/02/15 09:26:09;;;;;;;3.00;2.20;;;;;;;12.43;100.00;100877.16;4996119;28;20550;-81
2024/02/15 09:28:36;;;;;;;3.60;2.50;;;;;;;12.45;100.00;100888.59;4999501;28;20219;-81
2024/02/15 09:31:02;;;;;;;4.00;2.47;;;;;;;12.53;100.00;100885.44;4997429;28;20881;-81
2024/02/15 09:33:29;;;;;;;2.40;1.63;;;;;;;12.57;100.00;100888.72;4995282;28;20210;-81
2024/02/15 09:35:56;;;;;;;2.23;1.30;;;;;;;12.56;100.00;100889.69;4997276;28;20219;-80
2024/02/15 09:38:24;;;;;;;2.67;1.40;;;;;;;12.54;100.00;100888.97;4994456;28;20203;-80
2024/02/15 09:40:51;;;;;;;3.33;1.60;;;;;;;12.60;100.00;100886.72;4991683;28;20239;-79
2024/02/15 09:43:18;;;;;;;1.73;1.30;;;;;;;12.61;100.00;100885.75;4997926;28;20234;-80
2024/02/15 09:45:44;;;;;;;3.27;1.67;;;;;;;12.66;100.00;100885.44;5000085;28;20192;-81
2024/02/15 09:48:12;;;;;;;2.17;1.70;;;;;;;12.67;100.00;100888.03;4993676;28;20214;-80
2024/02/15 09:50:42;;;;;;;2.30;1.40;;;;;;;12.68;100.00;100891.53;4991779;28;20203;-80
2024/02/15 09:53:09;;;;;;;3.37;1.50;;;;;;;12.72;100.00;100887.72;4995841;28;20203;-82
2024/02/15 09:55:36;;;;;;;2.47;1.20;;;;;;;12.75;100.00;100884.81;4996845;28;20231;-83
2024/02/15 09:58:05;;;;;;;4.07;1.73;;;;;;;12.80;100.00;100890.69;4998211;28;20207;-83
2024/02/15 10:00:34;;;;;;;4.33;1.93;;;;;;;12.80;100.00;100890.69;4995443;28;20257;-80
2024/02/15 10:03:03;;;;;;;1.80;1.20;;;;;;;12.81;100.00;100881.72;4999585;28;20622;-81
2024/02/15 10:05:30;;;;;;;3.70;1.40;;;;;;;12.82;100.00;100888.78;4994930;28;20218;-80
2024/02/15 10:08:00;;;;;;;3.47;1.73;;;;;;;12.86;100.00;100896.50;4990688;28;20200;-80
2024/02/15 10:10:28;;;;;;;4.77;2.40;;;;;;;12.84;100.00;100898.41;4996744;28;20214;-83
2024/02/15 10:12:55;;;;;;;4.17;1.80;;;;;;;12.84;100.00;100897.56;4999210;28;20208;-81
2024/02/15 10:15:36;;;;;;;2.80;1.63;;;;;;;12.86;100.00;100896.50;4995174;28;20222;-81
2024/02/15 10:18:05;;;;;;;1.40;1.23;;;;;;;12.86;100.00;100899.16;4998362;28;20206;-81
2024/02/15 10:20:34;;;;;;;2.90;1.40;;;;;;;12.89;100.00;100913.28;4994226;28;20579;-81
2024/02/15 10:23:11;;;;;;;1.63;1.10;;;;;;;12.93;100.00;100918.28;4990732;28;20219;-81
2024/02/15 10:25:39;;;;;;;2.47;1.10;;;;;;;12.95;100.00;100919.03;4999972;28;20287;-81
2024/02/15 10:28:06;;;;;;;2.03;1.13;;;;;;;12.99;100.00;100911.66;4998085;28;20204;-82
2024/02/15 10:30:34;;;;;;;2.20;1.37;;;;;;;12.97;100.00;100911.78;4997534;28;20258;-82
2024/02/15 10:33:01;;;;;;;2.70;1.67;;;;;;;12.99;100.00;100903.66;4997739;28;20616;-81
2024/02/15 10:35:29;;;;;;;2.30;1.50;;;;;;;13.01;100.00;100909.75;4998196;28;20208;-80
2024/02/15 10:38:08;;;;;;;1.67;1.43;;;;;;;13.04;100.00;100905.06;5000390;28;20197;-81
2024/02/15 10:40:36;;;;;;;2.67;1.90;;;;;;;13.04;100.00;100910.41;4998865;28;20215;-82
2024/02/15 10:43:04;;;;;;;3.37;1.67;;;;;;;13.04;100.00;100905.06;4998108;28;20203;-81
2024/02/15 10:45:32;;;;;;;3.50;1.40;;;;;;;13.02;100.00;100906.97;4995401;28;20210;-80
2024/02/15 10:47:59;;;;;;;2.10;1.20;;;;;;;12.98;100.00;100908.13;4993510;28;20210;-80
2024/02/15 10:50:25;;;;;;;6.93;3.17;;;;;;;13.00;100.00;100905.38;4994074;28;20207;-80
2024/02/15 10:52:56;;;;;;;11.40;6.80;;;;;;;13.00;100.00;100908.03;4999988;28;20220;-80
2024/02/15 10:55:28;;;;;;;3.60;1.80;;;;;;;13.00;100.00;100900.00;5000724;28;20274;-80
2024/02/15 10:58:03;;;;;;;3.57;1.67;;;;;;;12.99;100.00;100899.16;4992187;28;20212;-80
2024/02/15 11:00:33;;;;;;;3.13;1.50;;;;;;;12.97;100.00;100897.56;4997036;28;20202;-80
2024/02/15 11:03:04;;;;;;;4.37;1.93;;;;;;;12.97;100.00;100893.06;4997769;28;20204;-80
2024/02/15 11:05:34;;;;;;;4.87;1.80;;;;;;;12.98;100.00;100888.56;4997525;28;20215;-80
2024/02/15 11:08:01;;;;;;;2.63;1.50;;;;;;;12.95;100.00;100870.91;4996073;28;20207;-80
2024/02/15 11:10:28;;;;;;;3.03;2.17;;;;;;;12.92;100.00;100873.81;4999243;28;20243;-80
2024/02/15 11:12:58;;;;;;;2.10;1.70;;;;;;;12.92;100.00;100880.97;4990203;28;20652;-81
2024/02/15 11:15:51;;;;;;;2.77;1.60;;;;;;;12.89;100.00;100874.03;4997454;28;20631;-80
2024/02/15 11:18:44;;;;;;;1.70;1.50;;;;;;;12.92;100.00;100870.28;4996810;28;20214;-80
2024/02/15 11:21:10;;;;;;;3.50;1.67;;;;;;;12.91;100.00;100872.09;4997948;28;21417;-80
2024/02/15 11:23:37;;;;;;;3.53;2.10;;;;;;;12.91;100.00;100877.44;4998408;28;20207;-80
2024/02/15 11:26:04;;;;;;;4.07;2.47;;;;;;;12.91;100.00;100869.41;4998499;28;20783;-80
2024/02/15 11:28:40;;;;;;;3.40;2.30;;;;;;;12.91;100.00;100866.75;4999668;28;20636;-80
2024/02/15 11:31:54;;;;;;;3.93;2.70;;;;;;;12.90;100.00;100865.03;4996092;28;20659;-80